Time;durP1;ratioP1;P1;durP2;ratioP2;P2;SDS_P1;SDS_P2;PMS_P1;PMS_P2;Temp;Humidity;BMP_temperature;BMP_pressure;BME280_temperature;BME280_humidity;BME280_pressure;Samples;Min_cycle;Max_cycle;Signal;HPM_P1;HPM_P2
2023/03/12 00:02:07;;;;;;;;;;;;;;;1.52;100.00;101125.06;5054496;28;19978;-77
2023/03/12 00:04:33;;;;;;;;;;;;;;;1.52;100.00;101132.09;5047116;28;20011;-76
2023/03/12 00:06:58;;;;;;;;;;;;;;;1.53;100.00;101129.44;5050312;28;19920;-76
2023/03/12 00:09:24;;;;;;;;;;;;;;;1.61;100.00;101119.41;5053664;28;19925;-76
2023/03/12 00:11:49;;;;;;;;;;;;;;;1.62;100.00;101115.00;5054894;28;19932;-76
2023/03/12 00:14:14;;;;;;;;;;;;;;;1.60;100.00;101115.03;5056462;28;19967;-76
2023/03/12 00:16:39;;;;;;;;;;;;;;;1.59;100.00;101117.75;5037933;28;19920;-76
2023/03/12 00:19:04;;;;;;;;;;;;;;;1.64;100.00;101113.16;5055485;28;19921;-76
2023/03/12 00:21:30;;;;;;;;;;;;;;;1.59;100.00;101112.47;5051451;28;19932;-76
2023/03/12 00:23:55;;;;;;;;;;;;;;;1.55;100.00;101108.19;5052528;28;20175;-76
2023/03/12 00:26:20;;;;;;;;;;;;;;;1.48;100.00;101105.75;5053433;28;19964;-75
2023/03/12 00:28:46;;;;;;;;;;;;;;;1.55;100.00;101095.84;5059695;28;19921;-76
2023/03/12 00:31:12;;;;;;;;;;;;;;;1.67;100.00;101096.28;5053925;28;19927;-76
2023/03/12 00:33:37;;;;;;;;;;;;;;;1.61;100.00;101095.59;5060926;28;20247;-76
2023/03/12 00:36:02;;;;;;;;;;;;;;;1.67;100.00;101096.28;5060806;28;20369;-76
2023/03/12 00:38:28;;;;;;;;;;;;;;;1.64;100.00;101086.69;5055113;28;20610;-75
2023/03/12 00:40:53;;;;;;;;;;;;;;;1.67;100.00;101078.63;5057702;28;19978;-76
2023/03/12 00:43:18;;;;;;;;;;;;;;;1.60;100.00;101075.34;5058920;28;19921;-76
2023/03/12 00:45:43;;;;;;;;;;;;;;;1.63;100.00;101072.56;5060766;28;19917;-75
2023/03/12 00:48:09;;;;;;;;;;;;;;;1.78;100.00;101067.66;5061386;28;19928;-76
2023/03/12 00:50:34;;;;;;;;;;;;;;;1.71;100.00;101067.03;5063509;28;19982;-76
2023/03/12 00:52:59;;;;;;;;;;;;;;;1.68;100.00;101066.25;5055733;28;19956;-76
2023/03/12 00:55:24;;;;;;;;;;;;;;;1.72;100.00;101070.53;5050427;28;19921;-76
2023/03/12 00:57:50;;;;;;;;;;;;;;;1.74;100.00;101071.34;5059237;28;19990;-76
2023/03/12 01:00:15;;;;;;;;;;;;;;;1.63;100.00;101063.78;5060166;28;20368;-76
2023/03/12 01:02:40;;;;;;;;;;;;;;;1.70;100.00;101067.94;5060947;28;19920;-76
2023/03/12 01:05:06;;;;;;;;;;;;;;;1.64;100.00;101082.25;5060589;28;20034;-76
2023/03/12 01:07:32;;;;;;;;;;;;;;;1.65;100.00;101076.03;5063006;28;20340;-76
2023/03/12 01:09:57;;;;;;;;;;;;;;;1.74;100.00;101069.53;5061234;28;19916;-76
2023/03/12 01:12:22;;;;;;;;;;;;;;;1.71;100.00;101074.97;5055151;28;20023;-76
2023/03/12 01:14:48;;;;;;;;;;;;;;;1.58;100.00;101071.91;5057340;28;20023;-76
2023/03/12 01:17:13;;;;;;;;;;;;;;;1.74;100.00;101071.34;5061334;28;20003;-76
2023/03/12 01:19:38;;;;;;;;;;;;;;;1.78;100.00;101065.00;5060418;28;19971;-76
2023/03/12 01:22:03;;;;;;;;;;;;;;;1.68;100.00;101059.19;5056193;28;19920;-76
2023/03/12 01:24:29;;;;;;;;;;;;;;;1.75;100.00;101052.72;5059879;28;19999;-75
2023/03/12 01:26:55;;;;;;;;;;;;;;;1.75;100.00;101039.50;5048547;28;21839;-76
2023/03/12 01:29:20;;;;;;;;;;;;;;;1.69;100.00;101039.75;5054646;28;20337;-76
2023/03/12 01:31:45;;;;;;;;;;;;;;;1.64;98.71;101031.94;5053343;28;20460;-75
2023/03/12 01:34:11;;;;;;;;;;;;;;;1.67;100.00;101038.94;5052083;28;20041;-76
2023/03/12 01:36:36;;;;;;;;;;;;;;;1.64;100.00;101036.41;5061321;28;19921;-76
2023/03/12 01:39:03;;;;;;;;;;;;;;;1.71;98.58;101037.91;5062963;28;19927;-76
2023/03/12 01:41:30;;;;;;;;;;;;;;;1.73;99.50;101035.19;5051581;28;19920;-76
2023/03/12 01:43:56;;;;;;;;;;;;;;;1.72;100.00;101023.72;5060177;28;20416;-76
2023/03/12 01:46:21;;;;;;;;;;;;;;;1.77;99.88;101031.50;5064814;28;19917;-76
2023/03/12 01:48:47;;;;;;;;;;;;;;;1.77;100.00;101036.81;5053159;28;19920;-76
2023/03/12 01:51:13;;;;;;;;;;;;;;;1.70;99.88;101025.59;5055626;28;19921;-76
2023/03/12 01:53:38;;;;;;;;;;;;;;;1.66;100.00;101018.69;5054413;28;19924;-75
2023/03/12 01:56:04;;;;;;;;;;;;;;;1.55;100.00;101020.84;5060239;28;20275;-75
2023/03/12 01:58:29;;;;;;;;;;;;;;;1.75;98.83;101018.31;5056350;28;20378;-75
2023/03/12 02:00:54;;;;;;;;;;;;;;;1.73;99.56;101006.06;5058660;28;19924;-76
2023/03/12 02:03:20;;;;;;;;;;;;;;;1.73;100.00;101006.91;5060375;28;20442;-76
2023/03/12 02:05:55;;;;;;;;;;;;;;;1.77;97.90;101005.03;5059951;28;20339;-76
2023/03/12 02:08:20;;;;;;;;;;;;;;;1.74;99.17;101003.34;5053330;28;19921;-76
2023/03/12 02:10:45;;;;;;;;;;;;;;;1.75;97.73;101006.88;5058250;28;19920;-76
2023/03/12 02:13:10;;;;;;;;;;;;;;;1.75;97.66;101007.72;5051919;28;19920;-76
2023/03/12 02:15:36;;;;;;;;;;;;;;;1.69;99.03;101005.34;5040915;28;19924;-76
2023/03/12 02:18:08;;;;;;;;;;;;;;;1.74;100.00;101003.34;5051749;28;19989;-76
2023/03/12 02:20:36;;;;;;;;;;;;;;;1.71;100.00;100995.56;5052200;28;19959;-76
2023/03/12 02:23:02;;;;;;;;;;;;;;;1.80;97.16;100999.63;5037404;28;20387;-76
2023/03/12 02:25:37;;;;;;;;;;;;;;;1.81;98.14;100996.06;5047560;28;19925;-76
2023/03/12 02:28:03;;;;;;;;;;;;;;;1.80;99.85;100989.03;5047009;28;19920;-76
2023/03/12 02:30:29;;;;;;;;;;;;;;;1.80;99.87;100991.69;5040752;28;19963;-76
2023/03/12 02:32:54;;;;;;;;;;;;;;;1.77;100.00;100987.34;5056101;28;19931;-76
2023/03/12 02:35:19;;;;;;;;;;;;;;;1.69;100.00;100980.63;5047322;28;19920;-76
2023/03/12 02:37:52;;;;;;;;;;;;;;;1.66;100.00;100978.97;5043639;28;19916;-76
2023/03/12 02:40:19;;;;;;;;;;;;;;;1.73;100.00;100979.59;5045609;28;19921;-76
2023/03/12 02:42:44;;;;;;;;;;;;;;;1.67;100.00;100970.13;5046996;28;19967;-75
2023/03/12 02:45:09;;;;;;;;;;;;;;;1.68;100.00;100966.53;5036154;28;20010;-76
2023/03/12 02:47:35;;;;;;;;;;;;;;;1.71;100.00;100965.56;5040555;28;20040;-76
2023/03/12 02:50:00;;;;;;;;;;;;;;;1.71;100.00;100963.78;5059443;28;19921;-76
2023/03/12 02:52:25;;;;;;;;;;;;;;;1.70;100.00;100958.53;5059919;28;19924;-76
2023/03/12 02:54:51;;;;;;;;;;;;;;;1.60;100.00;100958.88;5059466;28;19952;-76
2023/03/12 02:57:16;;;;;;;;;;;;;;;1.75;100.00;100959.22;5058154;28;20480;-76
2023/03/12 02:59:41;;;;;;;;;;;;;;;1.65;100.00;100956.91;5057705;28;19929;-76
2023/03/12 03:02:08;;;;;;;;;;;;;;;1.77;100.00;100955.56;5054351;28;20110;-76
2023/03/12 03:04:34;;;;;;;;;;;;;;;1.75;100.00;100949.47;5053749;28;20073;-76
2023/03/12 03:06:59;;;;;;;;;;;;;;;1.69;100.00;100948.88;5062196;28;19920;-76
2023/03/12 03:09:24;;;;;;;;;;;;;;;1.76;100.00;100940.63;5060051;28;19949;-75
2023/03/12 03:11:49;;;;;;;;;;;;;;;1.76;100.00;100945.06;5054351;28;19931;-76
2023/03/12 03:14:15;;;;;;;;;;;;;;;1.82;100.00;100955.41;5055233;28;19925;-75
2023/03/12 03:16:40;;;;;;;;;;;;;;;1.79;100.00;100956.38;5061605;28;19928;-76
2023/03/12 03:19:05;;;;;;;;;;;;;;;1.66;100.00;100944.56;5048356;28;19952;-76
2023/03/12 03:21:31;;;;;;;;;;;;;;;1.64;100.00;100951.69;5045704;28;19921;-76
2023/03/12 03:23:56;;;;;;;;;;;;;;;1.61;100.00;100947.38;5050243;28;19920;-76
2023/03/12 03:26:22;;;;;;;;;;;;;;;1.84;100.00;100950.94;5044074;28;20019;-75
2023/03/12 03:28:47;;;;;;;;;;;;;;;1.61;100.00;100957.09;5044212;28;19931;-76
2023/03/12 03:31:12;;;;;;;;;;;;;;;1.61;100.00;100949.16;5038808;28;19926;-75
2023/03/12 03:33:37;;;;;;;;;;;;;;;1.70;100.00;100947.94;5049619;28;20011;-75
2023/03/12 03:36:04;;;;;;;;;;;;;;;1.64;100.00;100943.75;5035873;28;19920;-76
2023/03/12 03:38:29;;;;;;;;;;;;;;;1.74;100.00;100941.59;5035704;28;19928;-75
2023/03/12 03:40:54;;;;;;;;;;;;;;;1.80;100.00;100939.56;5031372;28;20303;-75
2023/03/12 03:43:20;;;;;;;;;;;;;;;1.64;100.00;100930.53;5053788;28;19920;-75
2023/03/12 03:45:46;;;;;;;;;;;;;;;1.74;100.00;100926.56;5052015;28;20441;-75
2023/03/12 03:48:11;;;;;;;;;;;;;;;1.80;100.00;100921.03;5057988;28;19953;-76
2023/03/12 03:50:37;;;;;;;;;;;;;;;1.82;100.00;100914.81;5046545;28;19927;-75
2023/03/12 03:53:02;;;;;;;;;;;;;;;1.88;100.00;100918.09;5043824;28;19924;-75
2023/03/12 03:55:27;;;;;;;;;;;;;;;2.06;100.00;100926.22;5063690;28;19920;-75
2023/03/12 03:57:53;;;;;;;;;;;;;;;1.86;100.00;100930.53;5065524;28;20042;-76
2023/03/12 04:00:18;;;;;;;;;;;;;;;1.74;100.00;100925.72;5043738;28;20537;-75
2023/03/12 04:02:43;;;;;;;;;;;;;;;1.71;100.00;100929.38;5053619;28;19920;-75
2023/03/12 04:05:09;;;;;;;;;;;;;;;1.83;100.00;100925.38;5053774;28;19930;-75
2023/03/12 04:07:34;;;;;;;;;;;;;;;1.86;100.00;100916.44;5041180;28;19990;-76
2023/03/12 04:09:59;;;;;;;;;;;;;;;1.91;100.00;100909.16;5030037;28;20453;-75
2023/03/12 04:12:24;;;;;;;;;;;;;;;1.76;100.00;100910.66;5042312;28;19929;-76
2023/03/12 04:14:50;;;;;;;;;;;;;;;1.86;100.00;100900.53;5054337;28;19920;-75
2023/03/12 04:17:15;;;;;;;;;;;;;;;1.92;100.00;100893.22;5059102;28;19932;-75
2023/03/12 04:19:41;;;;;;;;;;;;;;;1.85;100.00;100898.81;5054374;28;20541;-75
2023/03/12 04:22:06;;;;;;;;;;;;;;;1.93;100.00;100891.44;5050300;28;20367;-75
2023/03/12 04:24:31;;;;;;;;;;;;;;;1.93;100.00;100888.78;5055021;28;19920;-75
2023/03/12 04:26:57;;;;;;;;;;;;;;;1.90;100.00;100884.47;5052463;28;19925;-75
2023/03/12 04:29:23;;;;;;;;;;;;;;;1.86;100.00;100885.50;5053967;28;19931;-75
2023/03/12 04:31:48;;;;;;;;;;;;;;;1.83;100.00;100879.47;5055943;28;20168;-75
2023/03/12 04:34:13;;;;;;;;;;;;;;;1.87;100.00;100878.44;5055647;28;19920;-75
2023/03/12 04:36:38;;;;;;;;;;;;;;;1.92;100.00;100864.06;5055378;28;19960;-75
2023/03/12 04:39:07;;;;;;;;;;;;;;;1.97;100.00;100863.91;5038177;28;19920;-75
2023/03/12 04:41:33;;;;;;;;;;;;;;;1.70;100.00;100850.00;5038467;28;20285;-75
2023/03/12 04:43:58;;;;;;;;;;;;;;;1.86;100.00;100837.84;5039305;28;19920;-75
2023/03/12 04:46:23;;;;;;;;;;;;;;;1.92;100.00;100826.16;5056983;28;19960;-76
2023/03/12 04:48:48;;;;;;;;;;;;;;;1.74;100.00;100831.28;5049252;28;20083;-74
2023/03/12 04:51:13;;;;;;;;;;;;;;;1.74;100.00;100828.63;5044634;28;20445;-75
2023/03/12 04:53:39;;;;;;;;;;;;;;;1.80;100.00;100830.19;5065564;28;20402;-75
2023/03/12 04:56:04;;;;;;;;;;;;;;;1.75;100.00;100848.88;5055257;28;19920;-75
2023/03/12 04:58:29;;;;;;;;;;;;;;;1.79;100.00;100844.34;5064741;28;19924;-75
2023/03/12 05:00:55;;;;;;;;;;;;;;;1.85;100.00;100837.91;5059655;28;19924;-75
2023/03/12 05:03:20;;;;;;;;;;;;;;;1.76;100.00;100837.38;5060673;28;19920;-75
2023/03/12 05:05:45;;;;;;;;;;;;;;;1.82;100.00;100828.34;5056210;28;19928;-76
2023/03/12 05:08:10;;;;;;;;;;;;;;;1.79;100.00;100823.16;5062833;28;20334;-75
2023/03/12 05:10:36;;;;;;;;;;;;;;;1.69;100.00;100788.28;5062013;28;19968;-75
2023/03/12 05:13:01;;;;;;;;;;;;;;;1.87;100.00;100813.09;5058619;28;19924;-75
2023/03/12 05:15:26;;;;;;;;;;;;;;;1.90;100.00;100814.78;5053440;28;20420;-75
2023/03/12 05:17:52;;;;;;;;;;;;;;;1.86;100.00;100797.28;5054366;28;19927;-75
2023/03/12 05:20:17;;;;;;;;;;;;;;;1.80;100.00;100793.97;5052202;28;19927;-75
2023/03/12 05:22:42;;;;;;;;;;;;;;;1.95;100.00;100778.38;5055332;28;19968;-75
2023/03/12 05:25:07;;;;;;;;;;;;;;;1.86;100.00;100782.25;5051072;28;20303;-75
2023/03/12 05:27:33;;;;;;;;;;;;;;;1.94;100.00;100785.44;5053554;28;20010;-74
2023/03/12 05:29:58;;;;;;;;;;;;;;;1.91;100.00;100776.78;5053023;28;20453;-74
2023/03/12 05:32:23;;;;;;;;;;;;;;;1.83;100.00;100763.00;5055200;28;20509;-74
2023/03/12 05:34:48;;;;;;;;;;;;;;;1.98;100.00;100785.31;5052224;28;19924;-74
2023/03/12 05:37:13;;;;;;;;;;;;;;;1.99;100.00;100779.94;5056082;28;19920;-75
2023/03/12 05:39:45;;;;;;;;;;;;;;;2.01;100.00;100780.72;5055079;28;19917;-76
2023/03/12 05:42:10;;;;;;;;;;;;;;;2.09;100.00;100778.63;5051471;28;19928;-75
2023/03/12 05:44:36;;;;;;;;;;;;;;;1.96;100.00;100777.44;5055121;28;20256;-75
2023/03/12 05:47:01;;;;;;;;;;;;;;;1.94;100.00;100781.94;5053451;28;20043;-75
2023/03/12 05:49:26;;;;;;;;;;;;;;;1.97;100.00;100773.00;5057350;28;20462;-74
2023/03/12 05:51:51;;;;;;;;;;;;;;;2.10;100.00;100764.44;5040967;28;20663;-74
2023/03/12 05:54:16;;;;;;;;;;;;;;;2.18;100.00;100758.81;5056799;28;20414;-74
2023/03/12 05:56:42;;;;;;;;;;;;;;;1.98;100.00;100754.41;5045257;28;20390;-75
2023/03/12 05:59:09;;;;;;;;;;;;;;;2.02;100.00;100760.41;5053819;28;19927;-75
2023/03/12 06:01:34;;;;;;;;;;;;;;;2.16;100.00;100759.81;5052334;28;19927;-74
2023/03/12 06:03:59;;;;;;;;;;;;;;;2.16;100.00;100771.25;5052613;28;19924;-74
2023/03/12 06:06:25;;;;;;;;;;;;;;;2.21;100.00;100765.78;5039015;28;19924;-75
2023/03/12 06:08:50;;;;;;;;;;;;;;;2.38;100.00;100770.34;5047777;28;19990;-74
2023/03/12 06:11:15;;;;;;;;;;;;;;;2.28;100.00;100779.59;5031119;28;19924;-74
2023/03/12 06:13:40;;;;;;;;;;;;;;;2.15;100.00;100780.13;5051678;28;20636;-75
2023/03/12 06:16:07;;;;;;;;;;;;;;;2.16;100.00;100776.56;5050444;28;20007;-74
2023/03/12 06:18:32;;;;;;;;;;;;;;;2.24;100.00;100776.25;5049078;28;19928;-75
2023/03/12 06:21:11;;;;;;;;;;;;;;;2.42;100.00;100765.75;5055696;28;19928;-75
2023/03/12 06:23:36;;;;;;;;;;;;;;;2.23;100.00;100767.41;5049764;28;19969;-75
2023/03/12 06:26:01;;;;;;;;;;;;;;;2.54;100.00;100755.44;5045580;28;19920;-75
2023/03/12 06:28:26;;;;;;;;;;;;;;;2.38;100.00;100773.00;5054557;28;19990;-75
2023/03/12 06:30:52;;;;;;;;;;;;;;;2.46;100.00;100770.00;5051974;28;19970;-75
2023/03/12 06:33:19;;;;;;;;;;;;;;;2.24;100.00;100777.09;5048202;28;20296;-75
2023/03/12 06:35:44;;;;;;;;;;;;;;;2.38;100.00;100763.22;5053910;28;19920;-74
2023/03/12 06:38:10;;;;;;;;;;;;;;;2.52;100.00;100769.69;5050759;28;19920;-74
2023/03/12 06:40:35;;;;;;;;;;;;;;;2.24;100.00;100773.59;5047334;28;19925;-75
2023/03/12 06:43:00;;;;;;;;;;;;;;;2.43;100.00;100762.16;5050559;28;20418;-74
2023/03/12 06:45:25;;;;;;;;;;;;;;;2.25;100.00;100760.28;5048549;28;20050;-74
2023/03/12 06:47:50;;;;;;;;;;;;;;;1.97;100.00;100759.75;5058605;28;19920;-76
2023/03/12 06:50:16;;;;;;;;;;;;;;;1.97;100.00;100757.97;5062270;28;19951;-75
2023/03/12 06:52:41;;;;;;;;;;;;;;;2.00;100.00;100759.63;5062071;28;19925;-75
2023/03/12 06:55:06;;;;;;;;;;;;;;;2.06;100.00;100762.00;5060231;28;20471;-75
2023/03/12 06:57:31;;;;;;;;;;;;;;;1.90;100.00;100761.81;5059088;28;20467;-78
2023/03/12 06:59:57;;;;;;;;;;;;;;;1.97;100.00;100762.41;5060185;28;19921;-74
2023/03/12 07:02:22;;;;;;;;;;;;;;;1.82;100.00;100751.56;5060523;28;19962;-74
2023/03/12 07:04:47;;;;;;;;;;;;;;;2.11;100.00;100754.72;5045758;28;20114;-76
2023/03/12 07:07:12;;;;;;;;;;;;;;;1.84;100.00;100751.47;5065991;28;19926;-74
2023/03/12 07:09:37;;;;;;;;;;;;;;;1.86;100.00;100747.81;5056692;28;20019;-75
2023/03/12 07:12:03;;;;;;;;;;;;;;;1.84;100.00;100752.34;5054781;28;19928;-76
2023/03/12 07:14:28;;;;;;;;;;;;;;;1.86;100.00;100741.69;5059103;28;20014;-74
2023/03/12 07:16:54;;;;;;;;;;;;;;;2.02;100.00;100734.78;5056634;28;20496;-75
2023/03/12 07:19:20;;;;;;;;;;;;;;;1.87;100.00;100738.09;5055119;28;20046;-76
2023/03/12 07:21:45;;;;;;;;;;;;;;;2.06;100.00;100735.53;5059280;28;19970;-74
2023/03/12 07:24:10;;;;;;;;;;;;;;;2.15;100.00;100743.03;5040280;28;19921;-75
2023/03/12 07:26:35;;;;;;;;;;;;;;;1.97;100.00;100749.16;5039028;28;19928;-77
2023/03/12 07:29:01;;;;;;;;;;;;;;;2.01;100.00;100748.09;5055198;28;19924;-75
2023/03/12 07:31:27;;;;;;;;;;;;;;;2.04;100.00;100742.69;5045446;28;19971;-75
2023/03/12 07:33:52;;;;;;;;;;;;;;;1.99;100.00;100740.22;5052170;28;20019;-75
2023/03/12 07:36:17;;;;;;;;;;;;;;;1.99;100.00;100748.16;5055237;28;19924;-75
2023/03/12 07:38:42;;;;;;;;;;;;;;;2.17;100.00;100741.19;5060902;28;19959;-74
2023/03/12 07:41:07;;;;;;;;;;;;;;;2.31;100.00;100734.44;5038736;28;19920;-74
2023/03/12 07:43:33;;;;;;;;;;;;;;;2.12;100.00;100742.34;5051948;28;19921;-75
2023/03/12 07:45:58;;;;;;;;;;;;;;;2.14;100.00;100741.31;5051627;28;20267;-75
2023/03/12 07:48:23;;;;;;;;;;;;;;;2.13;100.00;100742.25;5051142;28;20369;-75
2023/03/12 07:50:48;;;;;;;;;;;;;;;2.07;100.00;100739.91;5052377;28;20662;-75
2023/03/12 07:53:13;;;;;;;;;;;;;;;2.07;100.00;100743.38;5053605;28;19923;-74
2023/03/12 07:55:39;;;;;;;;;;;;;;;2.14;100.00;100743.97;5053134;28;19967;-76
2023/03/12 07:58:04;;;;;;;;;;;;;;;2.01;100.00;100742.81;5048408;28;20055;-75
2023/03/12 08:00:29;;;;;;;;;;;;;;;2.07;100.00;100737.25;5050505;28;19924;-75
2023/03/12 08:02:54;;;;;;;;;;;;;;;2.19;100.00;100749.94;5050947;28;19925;-76
2023/03/12 08:05:23;;;;;;;;;;;;;;;2.17;100.00;100745.66;5057369;28;20446;-76
2023/03/12 08:07:48;;;;;;;;;;;;;;;2.12;100.00;100755.56;5057187;28;19924;-75
2023/03/12 08:10:13;;;;;;;;;;;;;;;2.30;100.00;100757.41;5052351;28;19966;-76
2023/03/12 08:12:39;;;;;;;;;;;;;;;2.36;100.00;100748.34;5047690;28;20605;-75
2023/03/12 08:15:04;;;;;;;;;;;;;;;2.37;100.00;100750.91;5052292;28;20314;-75
2023/03/12 08:17:30;;;;;;;;;;;;;;;2.45;100.00;100747.91;5057046;28;20298;-76
2023/03/12 08:19:55;;;;;;;;;;;;;;;2.47;100.00;100746.06;5052019;28;19947;-76
2023/03/12 08:22:20;;;;;;;;;;;;;;;2.49;100.00;100738.88;5054202;28;19928;-76
2023/03/12 08:24:45;;;;;;;;;;;;;;;2.59;100.00;100741.13;5050314;28;19924;-75
2023/03/12 08:27:11;;;;;;;;;;;;;;;2.57;100.00;100730.59;5049351;28;19955;-74
2023/03/12 08:29:36;;;;;;;;;;;;;;;2.68;100.00;100738.91;5052652;28;20262;-75
2023/03/12 08:32:01;;;;;;;;;;;;;;;2.76;100.00;100743.00;5057728;28;19925;-75
2023/03/12 08:34:27;;;;;;;;;;;;;;;2.70;100.00;100745.00;5059352;28;20328;-76
2023/03/12 08:36:52;;;;;;;;;;;;;;;2.94;100.00;100743.91;5039631;28;19921;-75
2023/03/12 08:39:17;;;;;;;;;;;;;;;2.79;100.00;100745.47;5057010;28;19993;-76
2023/03/12 08:41:42;;;;;;;;;;;;;;;2.87;100.00;100737.19;5052039;28;19946;-75
2023/03/12 08:44:07;;;;;;;;;;;;;;;2.93;100.00;100745.72;5056566;28;20164;-75
2023/03/12 08:46:33;;;;;;;;;;;;;;;2.88;100.00;100742.41;5054249;28;19924;-75
2023/03/12 08:48:59;;;;;;;;;;;;;;;2.92;100.00;100744.00;5054852;28;19921;-75
2023/03/12 08:51:24;;;;;;;;;;;;;;;2.99;100.00;100752.50;5056977;28;19935;-75
2023/03/12 08:53:49;;;;;;;;;;;;;;;2.97;100.00;100751.72;5055624;28;19990;-75
2023/03/12 08:56:14;;;;;;;;;;;;;;;2.91;100.00;100744.91;5054641;28;20665;-75
2023/03/12 08:58:40;;;;;;;;;;;;;;;2.97;100.00;100749.94;5058127;28;20182;-75
2023/03/12 09:01:08;;;;;;;;;;;;;;;3.00;100.00;100751.56;5053591;28;20430;-75
2023/03/12 09:03:34;;;;;;;;;;;;;;;3.06;100.00;100759.25;5049496;28;20363;-75
2023/03/12 09:06:04;;;;;;;;;;;;;;;3.09;100.00;100756.47;5058968;28;19931;-75
2023/03/12 09:08:32;;;;;;;;;;;;;;;3.18;100.00;100765.75;5052145;28;19963;-75
2023/03/12 09:10:57;;;;;;;;;;;;;;;3.30;100.00;100754.56;5033679;28;20045;-76
2023/03/12 09:13:23;;;;;;;;;;;;;;;3.48;100.00;100756.38;5050015;28;19932;-75
2023/03/12 09:15:48;;;;;;;;;;;;;;;3.49;100.00;100752.78;5052663;28;19965;-75
2023/03/12 09:18:13;;;;;;;;;;;;;;;3.50;100.00;100762.47;5053684;28;20394;-76
2023/03/12 09:20:40;;;;;;;;;;;;;;;3.57;100.00;100754.16;5052784;28;20425;-75
2023/03/12 09:23:06;;;;;;;;;;;;;;;3.62;100.00;100753.03;5050956;28;20007;-75
2023/03/12 09:25:32;;;;;;;;;;;;;;;3.74;100.00;100761.22;5033694;28;19921;-76
2023/03/12 09:27:57;;;;;;;;;;;;;;;3.87;100.00;100750.84;5050245;28;19927;-75
2023/03/12 09:30:25;;;;;;;;;;;;;;;3.93;100.00;100752.34;5039482;28;20492;-75
2023/03/12 09:32:50;;;;;;;;;;;;;;;3.92;100.00;100752.41;5049211;28;19924;-76
2023/03/12 09:35:15;;;;;;;;;;;;;;;3.99;100.00;100745.84;5057077;28;20293;-75
2023/03/12 09:37:40;;;;;;;;;;;;;;;4.06;100.00;100749.91;5051085;28;20536;-76
2023/03/12 09:40:06;;;;;;;;;;;;;;;4.15;100.00;100754.72;5052016;28;19977;-75
2023/03/12 09:42:31;;;;;;;;;;;;;;;4.26;100.00;100746.19;5050008;28;20003;-76
2023/03/12 09:44:57;;;;;;;;;;;;;;;4.65;100.00;100744.13;5052019;28;19927;-75
2023/03/12 09:47:24;;;;;;;;;;;;;;;4.73;100.00;100746.41;5051622;28;19959;-75
2023/03/12 09:49:55;;;;;;;;;;;;;;;4.77;100.00;100755.91;5037677;28;20015;-75
2023/03/12 09:52:20;;;;;;;;;;;;;;;4.86;100.00;100774.03;5038114;28;19924;-75
2023/03/12 09:54:52;;;;;;;;;;;;;;;5.00;100.00;100764.44;5056650;28;19930;-76
2023/03/12 09:57:20;;;;;;;;;;;;;;;5.19;100.00;100769.56;5053106;28;19925;-75
2023/03/12 09:59:46;;;;;;;;;;;;;;;5.36;100.00;100774.81;5048873;28;20007;-73
2023/03/12 10:02:26;;;;;;;;;;;;;;;5.62;100.00;100763.59;5053023;28;19931;-75
2023/03/12 10:04:58;;;;;;;;;;;;;;;5.69;100.00;100765.78;5051120;28;19920;-75
2023/03/12 10:07:26;;;;;;;;;;;;;;;5.83;100.00;100772.13;5053966;28;19974;-75
2023/03/12 10:10:04;;;;;;;;;;;;;;;5.99;100.00;100748.94;5047358;28;20359;-74
2023/03/12 10:12:32;;;;;;;;;;;;;;;6.18;100.00;100763.00;5057055;28;19974;-76
2023/03/12 10:14:57;;;;;;;;;;;;;;;6.22;100.00;100762.75;5054342;28;19925;-75
2023/03/12 10:17:27;;;;;;;;;;;;;;;6.29;100.00;100764.06;5049077;28;19928;-77
2023/03/12 10:19:55;;;;;;;;;;;;;;;6.35;100.00;100760.19;5050052;28;19931;-74
2023/03/12 10:22:41;;;;;;;;;;;;;;;6.60;100.00;100764.84;5051003;28;19920;-76
2023/03/12 10:25:20;;;;;;;;;;;;;;;6.81;100.00;100759.09;5025034;28;19926;-76
2023/03/12 10:27:46;;;;;;;;;;;;;;;6.93;100.00;100759.28;5053351;28;19925;-75
2023/03/12 10:30:22;;;;;;;;;;;;;;;7.05;100.00;100762.03;5051659;28;19947;-75
2023/03/12 10:32:48;;;;;;;;;;;;;;;7.03;100.00;100739.91;5052466;28;19970;-77
2023/03/12 10:35:15;;;;;;;;;;;;;;;7.22;100.00;100749.38;5049833;28;19947;-75
2023/03/12 10:37:44;;;;;;;;;;;;;;;7.45;100.00;100739.88;5050961;28;19928;-78
2023/03/12 10:40:22;;;;;;;;;;;;;;;7.55;100.00;100745.47;5044490;28;19927;-75
2023/03/12 10:42:47;;;;;;;;;;;;;;;7.72;100.00;100749.69;5043384;28;20327;-75
2023/03/12 10:45:33;;;;;;;;;;;;;;;7.78;100.00;100759.09;5050903;28;20465;-75
2023/03/12 10:47:59;;;;;;;;;;;;;;;7.90;100.00;100754.72;5054992;28;19924;-75
2023/03/12 10:50:26;;;;;;;;;;;;;;;8.08;100.00;100744.59;5045195;28;19986;-76
2023/03/12 10:52:53;;;;;;;;;;;;;;;8.05;100.00;100740.31;5046388;28;19928;-77
2023/03/12 10:55:25;;;;;;;;;;;;;;;8.13;100.00;100736.25;5047447;28;20376;-75
2023/03/12 10:57:51;;;;;;;;;;;;;;;8.20;100.00;100737.53;5050039;28;20267;-75
2023/03/12 11:00:27;;;;;;;;;;;;;;;8.23;100.00;100738.16;5047311;28;19924;-75
2023/03/12 11:03:02;;;;;;;;;;;;;;;8.19;100.00;100744.72;5053310;28;19947;-75
2023/03/12 11:05:29;;;;;;;;;;;;;;;8.30;100.00;100743.97;5055426;28;19924;-76
2023/03/12 11:07:55;;;;;;;;;;;;;;;8.20;100.00;100742.88;5037349;28;20456;-75
2023/03/12 11:10:24;;;;;;;;;;;;;;;8.39;100.00;100745.97;5055044;28;19921;-75
2023/03/12 11:12:55;;;;;;;;;;;;;;;8.38;100.00;100754.13;5050923;28;20390;-76
2023/03/12 11:15:36;;;;;;;;;;;;;;;8.39;100.00;100750.50;5051000;28;19962;-75
2023/03/12 11:18:20;;;;;;;;;;;;;;;8.45;100.00;100751.88;5050520;28;20003;-76
2023/03/12 11:20:46;;;;;;;;;;;;;;;8.43;100.00;100754.66;5057009;28;19927;-75
2023/03/12 11:23:29;;;;;;;;;;;;;;;8.42;100.00;100747.59;5054617;28;19943;-74
2023/03/12 11:26:04;;;;;;;;;;;;;;;8.43;100.00;100749.31;5045157;28;19920;-75
2023/03/12 11:28:49;;;;;;;;;;;;;;;8.39;100.00;100751.34;5041150;28;19933;-74
2023/03/12 11:31:18;;;;;;;;;;;;;;;8.46;100.00;100762.47;5058779;28;20279;-76
2023/03/12 11:33:43;;;;;;;;;;;;;;;8.61;100.00;100763.22;5051444;28;20401;-75
2023/03/12 11:36:18;;;;;;;;;;;;;;;8.69;100.00;100758.19;5049206;28;20031;-75
2023/03/12 11:38:49;;;;;;;;;;;;;;;8.72;100.00;100765.16;5049103;28;19929;-77
2023/03/12 11:41:27;;;;;;;;;;;;;;;8.65;100.00;100761.22;5052026;28;20314;-76
2023/03/12 11:43:58;;;;;;;;;;;;;;;8.72;100.00;100766.97;5050967;28;19942;-76
2023/03/12 11:46:24;;;;;;;;;;;;;;;8.76;100.00;100773.81;5054552;28;19924;-76
2023/03/12 11:49:01;;;;;;;;;;;;;;;8.84;100.00;100769.63;5051652;28;19928;-75
2023/03/12 11:51:29;;;;;;;;;;;;;;;8.91;100.00;100772.72;5047137;28;20015;-77
2023/03/12 11:53:57;;;;;;;;;;;;;;;8.86;100.00;100777.56;5054940;28;20268;-76
2023/03/12 11:56:29;;;;;;;;;;;;;;;8.90;100.00;100770.16;5047573;28;19923;-76
2023/03/12 11:58:56;;;;;;;;;;;;;;;8.92;100.00;100782.47;5042413;28;20381;-76
2023/03/12 12:01:25;;;;;;;;;;;;;;;8.88;100.00;100774.78;5053578;28;19986;-75
2023/03/12 12:03:53;;;;;;;;;;;;;;;8.92;100.00;100773.59;5057518;28;19970;-76
2023/03/12 12:06:37;;;;;;;;;;;;;;;9.00;100.00;100766.72;5058766;28;20286;-75
2023/03/12 12:09:07;;;;;;;;;;;;;;;8.97;100.00;100760.72;5056434;28;20357;-75
2023/03/12 12:11:38;;;;;;;;;;;;;;;8.90;100.00;100765.66;5053747;28;19924;-76
2023/03/12 12:14:12;;;;;;;;;;;;;;;8.78;100.00;100755.84;5055199;28;19974;-76
2023/03/12 12:16:46;;;;;;;;;;;;;;;8.89;100.00;100744.34;5057946;28;19920;-75
2023/03/12 12:19:30;;;;;;;;;;;;;;;9.05;100.00;100734.22;5056558;28;19920;-75
2023/03/12 12:22:00;;;;;;;;;;;;;;;9.21;100.00;100725.91;5052480;28;19920;-76
2023/03/12 12:24:25;;;;;;;;;;;;;;;9.23;100.00;100732.03;5052680;28;20369;-77
2023/03/12 12:26:56;;;;;;;;;;;;;;;9.22;100.00;100732.97;5058826;28;20011;-75
2023/03/12 12:29:27;;;;;;;;;;;;;;;9.20;100.00;100729.56;5054226;28;19970;-76
2023/03/12 12:31:56;;;;;;;;;;;;;;;9.14;100.00;100722.84;5052437;28;19920;-76
2023/03/12 12:34:39;;;;;;;;;;;;;;;9.14;100.00;100730.00;5054636;28;20465;-76
2023/03/12 12:37:24;;;;;;;;;;;;;;;9.65;100.00;100733.44;5055313;28;20007;-76